VEAT/IXA METAR and TAF weather

Enter ICAO airport designator
Station Type Date Time Source
VEAT METAR 2021/09/24 06:30 UTC NOAA

VEAT 240630Z 36003KT 6000 SCT018 SCT100 34/26 Q1007 NOSIG


Station Type Date Time Source
VEAT Decoded METAR 2021/09/24 06:30 UTC NOAA

Agartala, India (VEAT) 23-53N 091-15E 16M
Sep 24, 2021 - 02:30 AM EDT / 2021.09.24 0630 UTC
Wind: from the N (360 degrees) at 3 MPH (3 KT):0
Visibility: 3 mile(s):0
Sky conditions: partly cloudy
Temperature: 93 F (34 C)
Heat index: 109.6 F (43.1 C):1
Dew Point: 78 F (26 C)
Relative Humidity: 63%
Pressure (altimeter): 29.74 in. Hg (1007 hPa)
ob: VEAT 240630Z 36003KT 6000 SCT018 SCT100 34/26 Q1007 NOSIG
cycle: 6

Station Type Date Time Source
VEAT TAF 2021/07/31 06:00 UTC NOAA

TAF VEAT 310500Z 3106/3115 15003KT 3000 -RA FEW008 SCT016 OVC090
TEMPO 3108/3111 1500 RA

Example: see airport list